createdAt,value
2023-12-11T00:00:22.281Z,-0.13
2023-12-11T00:03:30.465Z,-0.12
2023-12-11T00:06:18.553Z,-0.13
2023-12-11T00:09:06.615Z,-0.11
2023-12-11T00:11:54.892Z,-0.09
2023-12-11T00:14:43.155Z,-0.08
2023-12-11T00:17:31.308Z,-0.07
2023-12-11T00:20:19.587Z,-0.05
2023-12-11T00:23:07.784Z,-0.04
2023-12-11T00:25:57.952Z,-0.03
2023-12-11T00:28:48.705Z,-0.02
2023-12-11T00:31:36.583Z,-0.01
2023-12-11T00:34:24.722Z,-0.02
2023-12-11T00:37:14.215Z,0.01
2023-12-11T00:40:02.478Z,0.02
2023-12-11T00:42:50.097Z,0.04
2023-12-11T00:45:37.720Z,0.03
2023-12-11T00:48:26.542Z,0.03
2023-12-11T00:51:22.146Z,0.03
2023-12-11T00:54:10.004Z,-0.01
2023-12-11T00:56:58.041Z,0.03
2023-12-11T00:59:45.540Z,0.04
2023-12-11T01:02:33.205Z,0.07
2023-12-11T01:05:21.322Z,0.09
2023-12-11T01:08:09.212Z,0.11
2023-12-11T01:10:58.892Z,0.13
2023-12-11T01:13:46.496Z,0.12
2023-12-11T01:16:35.060Z,0.13
2023-12-11T01:19:23.037Z,0.14
2023-12-11T01:22:11.824Z,0.16
2023-12-11T01:25:03.001Z,0.15
2023-12-11T01:27:50.921Z,0.13
2023-12-11T01:30:39.072Z,0.13
2023-12-11T01:33:27.712Z,0.13
2023-12-11T01:36:15.781Z,0.12
2023-12-11T01:39:03.408Z,0.12
2023-12-11T01:41:50.937Z,0.12
2023-12-11T01:44:38.918Z,0.12
2023-12-11T01:47:26.922Z,0.15
2023-12-11T01:50:14.879Z,0.18
2023-12-11T01:53:02.721Z,0.21
2023-12-11T01:55:51.376Z,0.22
2023-12-11T01:58:39.651Z,0.27
2023-12-11T02:01:28.091Z,0.28
2023-12-11T02:04:17.267Z,0.29
2023-12-11T02:07:05.430Z,0.29
2023-12-11T02:09:53.451Z,0.29
2023-12-11T02:12:43.975Z,0.30
2023-12-11T02:15:44.814Z,0.31
2023-12-11T02:18:33.025Z,0.32
2023-12-11T02:21:20.934Z,0.35
2023-12-11T02:24:22.590Z,0.37
2023-12-11T02:27:11.099Z,0.39
2023-12-11T02:29:58.745Z,0.36
2023-12-11T02:32:46.740Z,0.40
2023-12-11T02:35:34.452Z,0.39
2023-12-11T02:38:22.210Z,0.37
2023-12-11T02:41:10.048Z,0.34
2023-12-11T02:44:00.320Z,0.35
2023-12-11T02:46:48.296Z,0.35
2023-12-11T02:49:37.958Z,0.34
2023-12-11T02:52:25.933Z,0.33
2023-12-11T02:55:14.157Z,0.33
2023-12-11T02:58:04.327Z,0.33
2023-12-11T03:00:52.076Z,0.32
2023-12-11T03:03:40.227Z,0.32
2023-12-11T03:06:28.036Z,0.33
2023-12-11T03:09:15.785Z,0.32
2023-12-11T03:12:03.794Z,0.33
2023-12-11T03:14:51.623Z,0.35
2023-12-11T03:17:39.710Z,0.36
2023-12-11T03:20:27.864Z,0.38
2023-12-11T03:23:15.585Z,0.36
2023-12-11T03:26:03.339Z,0.35
2023-12-11T03:28:51.346Z,0.36
2023-12-11T03:31:39.218Z,0.35
2023-12-11T03:34:27.301Z,0.37
2023-12-11T03:37:15.319Z,0.38
2023-12-11T03:40:04.772Z,0.38
2023-12-11T03:42:52.920Z,0.39
2023-12-11T03:45:40.460Z,0.40
2023-12-11T03:48:29.124Z,0.42
2023-12-11T03:51:17.175Z,0.44
2023-12-11T03:54:05.161Z,0.45
2023-12-11T03:56:53.125Z,0.46
2023-12-11T03:59:42.041Z,0.48
2023-12-11T04:02:30.065Z,0.50
2023-12-11T04:05:18.875Z,0.54
2023-12-11T04:08:06.614Z,0.55
2023-12-11T04:10:54.692Z,0.58
2023-12-11T04:13:42.505Z,0.60
2023-12-11T04:16:30.423Z,0.63
2023-12-11T04:19:18.295Z,0.66
2023-12-11T04:22:07.842Z,0.71
2023-12-11T04:24:55.995Z,0.74
2023-12-11T04:27:43.779Z,0.77
2023-12-11T04:30:31.539Z,0.79
2023-12-11T04:33:19.350Z,0.78
2023-12-11T04:36:09.945Z,0.86
2023-12-11T04:38:57.598Z,0.90
2023-12-11T04:41:45.536Z,0.93
2023-12-11T04:44:34.458Z,0.95
2023-12-11T04:47:22.110Z,0.93
2023-12-11T04:50:12.385Z,0.98
2023-12-11T04:53:01.548Z,0.97
2023-12-11T04:55:49.471Z,0.97
2023-12-11T04:58:38.562Z,0.95
2023-12-11T05:01:28.192Z,1.01
2023-12-11T05:04:16.326Z,1.03
2023-12-11T05:07:05.683Z,1.03
2023-12-11T05:09:53.941Z,1.06
2023-12-11T05:12:42.098Z,1.03
2023-12-11T05:15:30.186Z,1.09
2023-12-11T05:18:18.181Z,1.11
2023-12-11T05:21:10.942Z,1.13
2023-12-11T05:23:58.767Z,1.16
2023-12-11T05:26:46.607Z,1.18
2023-12-11T05:29:34.493Z,1.22
2023-12-11T05:32:22.251Z,1.25
2023-12-11T05:35:10.208Z,1.27
2023-12-11T05:37:59.907Z,1.29
2023-12-11T05:40:50.309Z,1.31
2023-12-11T05:43:40.603Z,1.33
2023-12-11T05:46:29.970Z,1.35
2023-12-11T05:49:17.980Z,1.39
2023-12-11T05:52:06.673Z,1.42
2023-12-11T05:54:54.428Z,1.44
2023-12-11T05:57:42.173Z,1.46
2023-12-11T06:00:29.983Z,1.47
2023-12-11T06:03:18.141Z,1.48
2023-12-11T06:06:16.018Z,1.50
2023-12-11T06:09:04.411Z,1.55
2023-12-11T06:11:52.274Z,1.57
2023-12-11T06:14:46.283Z,1.62
2023-12-11T06:17:36.909Z,1.65
2023-12-11T06:20:25.281Z,1.67
2023-12-11T06:23:13.292Z,1.70
2023-12-11T06:26:01.395Z,1.74
2023-12-11T06:28:49.439Z,1.77
2023-12-11T06:31:37.091Z,1.79
2023-12-11T06:34:25.179Z,1.83
2023-12-11T06:37:13.209Z,1.85
2023-12-11T06:40:01.828Z,1.86
2023-12-11T06:42:50.036Z,1.89
2023-12-11T06:45:39.269Z,1.92
2023-12-11T06:48:27.132Z,1.93
2023-12-11T06:51:18.194Z,1.94
2023-12-11T06:54:19.512Z,1.97
2023-12-11T06:57:07.645Z,1.99
2023-12-11T06:59:55.796Z,2.02
2023-12-11T07:02:43.821Z,2.03
2023-12-11T07:05:31.933Z,2.07
2023-12-11T07:08:20.032Z,2.07
2023-12-11T07:11:08.874Z,2.09
2023-12-11T07:13:57.130Z,2.11
2023-12-11T07:16:45.162Z,2.11
2023-12-11T07:19:33.014Z,2.12
2023-12-11T07:22:21.355Z,2.12
2023-12-11T07:25:09.521Z,2.12
2023-12-11T07:27:57.208Z,2.15
2023-12-11T07:30:44.909Z,2.16
2023-12-11T07:33:34.382Z,2.19
2023-12-11T07:36:23.000Z,2.24
2023-12-11T07:39:13.028Z,2.23
2023-12-11T07:42:00.964Z,2.22
2023-12-11T07:44:48.841Z,2.26
2023-12-11T07:47:36.972Z,2.28
2023-12-11T07:50:26.426Z,2.32
2023-12-11T07:53:14.385Z,2.35
2023-12-11T07:56:02.077Z,2.34
2023-12-11T07:58:51.241Z,2.35
2023-12-11T08:01:39.471Z,2.37
2023-12-11T08:04:27.437Z,2.39
2023-12-11T08:07:16.810Z,2.42
2023-12-11T08:10:05.731Z,2.43
2023-12-11T08:12:54.306Z,2.46
2023-12-11T08:15:42.512Z,2.44
2023-12-11T08:18:30.634Z,2.50
2023-12-11T08:21:18.655Z,2.54
2023-12-11T08:24:07.045Z,2.58
2023-12-11T08:26:56.639Z,2.62
2023-12-11T08:29:44.662Z,2.66
2023-12-11T08:32:32.540Z,2.68
2023-12-11T08:35:20.401Z,2.66
2023-12-11T08:38:08.309Z,2.67
2023-12-11T08:40:56.448Z,2.72
2023-12-11T08:43:44.382Z,2.75
2023-12-11T08:46:33.012Z,2.77
2023-12-11T08:49:21.802Z,2.81
2023-12-11T08:52:09.532Z,2.83
2023-12-11T08:54:57.007Z,2.86
2023-12-11T08:57:46.481Z,2.89
2023-12-11T09:00:34.558Z,2.94
2023-12-11T09:03:22.654Z,2.98
2023-12-11T09:06:11.236Z,2.98
2023-12-11T09:08:59.085Z,2.96
2023-12-11T09:11:47.558Z,2.98
2023-12-11T09:14:35.517Z,3.03
2023-12-11T09:17:23.353Z,3.06
2023-12-11T09:20:11.849Z,3.05
2023-12-11T09:23:01.376Z,3.04
2023-12-11T09:25:50.218Z,3.03
2023-12-11T09:28:48.372Z,3.01
2023-12-11T09:31:39.852Z,2.99
2023-12-11T09:34:27.940Z,3.00
2023-12-11T09:37:22.890Z,3.07
2023-12-11T09:40:12.401Z,3.11
2023-12-11T09:43:03.536Z,3.17
2023-12-11T09:45:53.058Z,3.20
2023-12-11T09:48:40.835Z,3.21
2023-12-11T09:51:28.999Z,3.21
2023-12-11T09:54:16.868Z,3.17
2023-12-11T09:57:06.774Z,3.14
2023-12-11T09:59:54.617Z,3.09
2023-12-11T10:02:44.077Z,3.04
2023-12-11T10:06:00.802Z,3.04
2023-12-11T10:08:50.777Z,3.04
2023-12-11T10:11:38.793Z,3.01
2023-12-11T10:14:30.062Z,2.99
2023-12-11T10:17:19.021Z,2.96
2023-12-11T10:20:18.221Z,2.96
2023-12-11T10:23:15.504Z,3.00
2023-12-11T10:26:07.777Z,3.04
2023-12-11T10:28:55.596Z,3.04
2023-12-11T10:31:43.596Z,3.01
2023-12-11T10:34:53.086Z,3.03
2023-12-11T10:37:40.870Z,3.11
2023-12-11T10:40:43.150Z,3.16
2023-12-11T10:46:39.090Z,3.20
2023-12-11T10:49:27.258Z,3.19
2023-12-11T10:52:15.514Z,3.16
2023-12-11T10:55:06.165Z,3.19
2023-12-11T10:57:54.674Z,3.15
2023-12-11T11:00:43.082Z,3.19
2023-12-11T11:03:32.005Z,3.19
2023-12-11T11:06:22.970Z,3.18
2023-12-11T11:09:14.575Z,3.22
2023-12-11T11:12:12.348Z,3.27
2023-12-11T11:15:00.290Z,3.31
2023-12-11T11:18:08.060Z,3.36
2023-12-11T11:21:13.761Z,3.38
2023-12-11T11:24:01.855Z,3.38
2023-12-11T11:26:50.336Z,3.41
2023-12-11T11:29:39.525Z,3.41
2023-12-11T11:32:57.936Z,3.34
2023-12-11T11:35:55.644Z,3.34
2023-12-11T11:38:57.936Z,3.35
2023-12-11T11:41:46.103Z,3.38
2023-12-11T11:44:34.372Z,3.39
2023-12-11T11:47:22.035Z,3.53
2023-12-11T11:50:15.055Z,3.69
2023-12-11T11:53:10.093Z,3.74
2023-12-11T11:56:02.129Z,3.77
2023-12-11T11:58:50.202Z,3.79
2023-12-11T12:01:53.464Z,3.73
2023-12-11T12:04:41.375Z,3.66
2023-12-11T12:07:30.519Z,3.66
2023-12-11T12:10:18.979Z,3.63
2023-12-11T12:13:08.013Z,3.56
2023-12-11T12:15:56.370Z,3.57
2023-12-11T12:18:51.510Z,3.59
2023-12-11T12:21:57.675Z,3.59
2023-12-11T12:24:50.109Z,3.62
2023-12-11T12:27:38.123Z,3.65
2023-12-11T12:30:28.770Z,3.65
2023-12-11T12:33:19.832Z,3.63
2023-12-11T12:36:08.260Z,3.59
2023-12-11T12:38:56.318Z,3.53
2023-12-11T12:41:44.225Z,3.53
2023-12-11T12:44:38.894Z,3.51
2023-12-11T12:47:26.691Z,3.48
2023-12-11T12:50:24.515Z,3.42
2023-12-11T12:53:14.536Z,3.34
2023-12-11T12:56:02.474Z,3.31
2023-12-11T12:58:51.060Z,3.31
2023-12-11T13:01:42.484Z,3.30
2023-12-11T13:04:30.442Z,3.32
2023-12-11T13:07:20.272Z,3.32
2023-12-11T13:10:15.290Z,3.32
2023-12-11T13:13:15.561Z,3.28
2023-12-11T13:16:04.375Z,3.24
2023-12-11T13:18:53.276Z,3.23
2023-12-11T13:21:46.274Z,3.26
2023-12-11T13:24:34.293Z,3.28
2023-12-11T13:27:26.481Z,3.29
2023-12-11T13:30:18.003Z,3.29
2023-12-11T13:33:06.470Z,3.26
2023-12-11T13:35:54.086Z,3.23
2023-12-11T13:38:43.608Z,3.19
2023-12-11T13:41:36.181Z,3.14
2023-12-11T13:44:24.156Z,3.13
2023-12-11T13:47:11.954Z,3.12
2023-12-11T13:49:59.673Z,3.07
2023-12-11T13:52:48.096Z,3.02
2023-12-11T13:55:35.841Z,2.96
2023-12-11T13:58:23.629Z,2.92
2023-12-11T14:01:12.078Z,2.86
2023-12-11T14:04:00.284Z,2.80
2023-12-11T14:06:48.620Z,2.76
2023-12-11T14:09:37.132Z,2.74
2023-12-11T14:12:25.926Z,2.75
2023-12-11T14:15:14.104Z,2.76
2023-12-11T14:18:04.585Z,2.79
2023-12-11T14:20:55.085Z,2.82
2023-12-11T14:23:43.174Z,2.80
2023-12-11T14:26:33.191Z,2.80
2023-12-11T14:29:23.390Z,2.78
2023-12-11T14:32:11.908Z,2.73
2023-12-11T14:35:00.004Z,2.71
2023-12-11T14:37:48.204Z,2.68
2023-12-11T14:40:36.487Z,2.65
2023-12-11T14:43:25.196Z,2.62
2023-12-11T14:46:13.525Z,2.68
2023-12-11T14:49:01.780Z,2.70
2023-12-11T14:51:49.968Z,2.74
2023-12-11T14:54:37.889Z,2.74
2023-12-11T14:57:25.547Z,2.73
2023-12-11T15:00:13.753Z,2.74
2023-12-11T15:03:01.798Z,2.73
2023-12-11T15:05:50.618Z,2.71
2023-12-11T15:08:40.926Z,2.68
2023-12-11T15:11:29.686Z,2.67
2023-12-11T15:14:17.645Z,2.68
2023-12-11T15:17:07.039Z,2.69
2023-12-11T15:19:54.903Z,2.72
2023-12-11T15:22:44.191Z,2.72
2023-12-11T15:25:32.219Z,2.74
2023-12-11T15:28:20.102Z,2.75
2023-12-11T15:31:13.498Z,2.70
2023-12-11T15:34:05.597Z,2.68
2023-12-11T15:36:54.053Z,2.69
2023-12-11T15:39:41.780Z,2.68
2023-12-11T15:42:29.583Z,2.66
2023-12-11T15:45:18.372Z,2.67
2023-12-11T15:48:06.720Z,2.67
2023-12-11T15:53:17.030Z,2.70
2023-12-11T15:56:08.746Z,2.67
2023-12-11T15:58:59.271Z,2.69
2023-12-11T16:01:47.701Z,2.70
2023-12-11T16:04:35.810Z,2.68
2023-12-11T16:07:24.389Z,2.68
2023-12-11T16:10:13.116Z,2.68
2023-12-11T16:13:01.740Z,2.68
2023-12-11T16:15:50.103Z,2.64
2023-12-11T16:18:46.070Z,2.67
2023-12-11T16:21:40.286Z,2.67
2023-12-11T16:24:28.426Z,2.64
2023-12-11T16:27:18.204Z,2.63
2023-12-11T16:30:11.239Z,2.60
2023-12-11T16:32:59.725Z,2.56
2023-12-11T16:35:47.844Z,2.51
2023-12-11T16:38:37.966Z,2.50
2023-12-11T16:41:29.160Z,2.46
2023-12-11T16:44:17.658Z,2.46
2023-12-11T16:47:05.837Z,2.47
2023-12-11T16:50:02.095Z,2.45
2023-12-11T16:52:56.064Z,2.44
2023-12-11T16:55:44.045Z,2.45
2023-12-11T16:58:33.078Z,2.46
2023-12-11T17:01:23.136Z,2.47
2023-12-11T17:04:13.759Z,2.47
2023-12-11T17:07:01.902Z,2.46
2023-12-11T17:09:50.171Z,2.42
2023-12-11T17:12:38.291Z,2.37
2023-12-11T17:15:27.033Z,2.34
2023-12-11T17:18:15.464Z,2.32
2023-12-11T17:21:06.815Z,2.32
2023-12-11T17:23:55.282Z,2.33
2023-12-11T17:26:43.136Z,2.35
2023-12-11T17:29:31.443Z,2.36
2023-12-11T17:32:19.213Z,2.40
2023-12-11T17:35:08.392Z,2.44
2023-12-11T17:37:57.025Z,2.49
2023-12-11T17:40:44.822Z,2.49
2023-12-11T17:43:32.809Z,2.49
2023-12-11T17:46:20.876Z,2.48
2023-12-11T17:49:09.266Z,2.48
2023-12-11T17:51:58.044Z,2.45
2023-12-11T17:54:50.445Z,2.46
2023-12-11T17:57:39.361Z,2.43
2023-12-11T18:00:28.306Z,2.39
2023-12-11T18:03:16.043Z,2.39
2023-12-11T18:06:05.018Z,2.39
2023-12-11T18:08:52.495Z,2.43
2023-12-11T18:11:40.860Z,2.47
2023-12-11T18:14:29.317Z,2.49
2023-12-11T18:17:18.275Z,2.47
2023-12-11T18:20:08.219Z,2.45
2023-12-11T18:22:58.369Z,2.43
2023-12-11T18:25:46.304Z,2.40
2023-12-11T18:28:34.581Z,2.37
2023-12-11T18:31:23.470Z,2.34
2023-12-11T18:34:12.212Z,2.33
2023-12-11T18:37:06.072Z,2.31
2023-12-11T18:39:54.218Z,2.33
2023-12-11T18:42:45.154Z,2.36
2023-12-11T18:45:32.829Z,2.39
2023-12-11T18:48:23.705Z,2.42
2023-12-11T18:51:13.291Z,2.44
2023-12-11T18:54:03.926Z,2.45
2023-12-11T18:56:52.658Z,2.48
2023-12-11T18:59:40.683Z,2.49
2023-12-11T19:02:30.161Z,2.48
2023-12-11T19:05:18.676Z,2.50
2023-12-11T19:08:06.801Z,2.50
2023-12-11T19:10:56.768Z,2.52
2023-12-11T19:13:45.416Z,2.54
2023-12-11T19:16:33.695Z,2.56
2023-12-11T19:19:21.929Z,2.56
2023-12-11T19:22:09.947Z,2.58
2023-12-11T19:24:58.425Z,2.59
2023-12-11T19:27:47.163Z,2.57
2023-12-11T19:30:35.503Z,2.56
2023-12-11T19:33:23.426Z,2.54
2023-12-11T19:36:11.985Z,2.52
2023-12-11T19:39:00.155Z,2.48
2023-12-11T19:41:48.553Z,2.47
2023-12-11T19:44:36.279Z,2.44
2023-12-11T19:47:26.021Z,2.44
2023-12-11T19:50:14.910Z,2.44
2023-12-11T19:53:03.109Z,2.46
2023-12-11T19:55:51.543Z,2.46
2023-12-11T19:58:41.752Z,2.47
2023-12-11T20:01:32.002Z,2.46
2023-12-11T20:04:20.859Z,2.44
2023-12-11T20:07:10.278Z,2.44
2023-12-11T20:09:58.687Z,2.41
2023-12-11T20:12:49.306Z,2.39
2023-12-11T20:15:38.693Z,2.38
2023-12-11T20:18:27.546Z,2.38
2023-12-11T20:21:16.510Z,2.37
2023-12-11T20:24:06.330Z,2.37
2023-12-11T20:26:55.502Z,2.35
2023-12-11T20:29:43.749Z,2.35
2023-12-11T20:32:33.823Z,2.38
2023-12-11T20:35:22.250Z,2.41
2023-12-11T20:38:10.921Z,2.39
2023-12-11T20:40:58.872Z,2.40
2023-12-11T20:43:52.035Z,2.38
2023-12-11T20:46:40.458Z,2.37
2023-12-11T20:49:29.097Z,2.34
2023-12-11T20:52:17.841Z,2.33
2023-12-11T20:55:08.322Z,2.30
2023-12-11T20:57:56.556Z,2.28
2023-12-11T21:00:44.885Z,2.31
2023-12-11T21:03:33.064Z,2.34
2023-12-11T21:06:22.178Z,2.35
2023-12-11T21:09:12.270Z,2.33
2023-12-11T21:12:00.922Z,2.29
2023-12-11T21:14:49.973Z,2.25
2023-12-11T21:17:41.827Z,2.22
2023-12-11T21:20:30.263Z,2.16
2023-12-11T21:23:18.818Z,2.12
2023-12-11T21:26:14.577Z,2.11
2023-12-11T21:29:02.823Z,2.10
2023-12-11T21:31:51.340Z,2.11
2023-12-11T21:34:44.087Z,2.13
2023-12-11T21:37:32.860Z,2.14
2023-12-11T21:40:21.471Z,2.15
2023-12-11T21:43:09.960Z,2.16
2023-12-11T21:45:59.801Z,2.14
2023-12-11T21:48:49.790Z,2.15
2023-12-11T21:51:38.202Z,2.15
2023-12-11T21:54:26.722Z,2.14
2023-12-11T21:57:15.116Z,2.12
2023-12-11T22:00:03.412Z,2.11
2023-12-11T22:03:02.246Z,2.08
2023-12-11T22:05:50.848Z,2.07
2023-12-11T22:08:39.101Z,2.06
2023-12-11T22:11:27.573Z,2.07
2023-12-11T22:14:15.801Z,2.08
2023-12-11T22:17:04.368Z,2.09
2023-12-11T22:19:52.541Z,2.11
2023-12-11T22:22:41.276Z,2.14
2023-12-11T22:25:29.456Z,2.15
2023-12-11T22:28:17.644Z,2.13
2023-12-11T22:31:05.823Z,2.13
2023-12-11T22:33:54.275Z,2.14
2023-12-11T22:36:42.565Z,2.11
2023-12-11T22:39:32.711Z,2.08
2023-12-11T22:42:21.329Z,2.07
2023-12-11T22:45:10.085Z,2.04
2023-12-11T22:47:58.811Z,2.03
2023-12-11T22:50:47.209Z,2.05
2023-12-11T22:53:36.736Z,2.09
2023-12-11T22:56:24.518Z,2.12
2023-12-11T22:59:12.555Z,2.12
2023-12-11T23:02:04.063Z,2.09
2023-12-11T23:04:53.190Z,2.06
2023-12-11T23:07:41.654Z,2.02
2023-12-11T23:10:30.268Z,2.00
2023-12-11T23:13:18.342Z,1.94
2023-12-11T23:16:08.065Z,1.92
2023-12-11T23:19:00.528Z,1.92
2023-12-11T23:21:50.536Z,1.95
2023-12-11T23:24:39.059Z,2.00
2023-12-11T23:27:27.098Z,2.04
2023-12-11T23:30:15.558Z,2.07
2023-12-11T23:33:04.093Z,2.08
2023-12-11T23:35:51.932Z,2.06
2023-12-11T23:38:40.291Z,2.06
2023-12-11T23:41:28.319Z,2.02
2023-12-11T23:44:16.203Z,2.00
2023-12-11T23:47:04.765Z,2.01
2023-12-11T23:49:53.102Z,2.03
2023-12-11T23:52:41.405Z,2.06
2023-12-11T23:55:30.190Z,2.08
2023-12-11T23:58:18.348Z,2.09
